sensor_id;sensor_type;location;lat;lon;timestamp;pressure;altitude;pressure_sealevel;temperature;humidity
48774;BME280;34576;0.000;0.000;2022-10-31T00:06:28;97104.03;;;20.21;67.31
48774;BME280;34576;0.000;0.000;2022-10-31T00:13:28;97101.34;;;20.21;67.49
48774;BME280;34576;0.000;0.000;2022-10-31T00:20:29;97102.41;;;20.20;67.35
48774;BME280;34576;0.000;0.000;2022-10-31T00:27:29;97098.16;;;20.19;67.30
48774;BME280;34576;0.000;0.000;2022-10-31T00:34:30;97097.06;;;20.20;67.26
48774;BME280;34576;0.000;0.000;2022-10-31T00:41:30;97100.03;;;20.18;67.30
48774;BME280;34576;0.000;0.000;2022-10-31T00:48:30;97100.81;;;20.19;67.11
48774;BME280;34576;0.000;0.000;2022-10-31T00:55:31;97093.91;;;20.18;67.14
48774;BME280;34576;0.000;0.000;2022-10-31T01:02:31;97098.44;;;20.17;67.28
48774;BME280;34576;0.000;0.000;2022-10-31T01:09:32;97092.28;;;20.17;67.31
48774;BME280;34576;0.000;0.000;2022-10-31T01:16:33;97088.03;;;20.16;67.14
48774;BME280;34576;0.000;0.000;2022-10-31T01:23:33;97074.66;;;20.16;67.08
48774;BME280;34576;0.000;0.000;2022-10-31T01:30:34;97082.97;;;20.14;67.11
48774;BME280;34576;0.000;0.000;2022-10-31T01:37:34;97083.75;;;20.15;67.15
48774;BME280;34576;0.000;0.000;2022-10-31T01:51:36;97074.16;;;20.14;67.19
48774;BME280;34576;0.000;0.000;2022-10-31T01:58:38;97064.56;;;20.13;67.07
48774;BME280;34576;0.000;0.000;2022-10-31T02:05:39;97062.66;;;20.13;67.04
48774;BME280;34576;0.000;0.000;2022-10-31T02:12:41;97056.53;;;20.13;67.11
48774;BME280;34576;0.000;0.000;2022-10-31T02:19:56;97050.66;;;20.11;67.03
48774;BME280;34576;0.000;0.000;2022-10-31T02:27:14;97053.34;;;20.11;66.94
48774;BME280;34576;0.000;0.000;2022-10-31T02:34:19;97048.00;;;20.11;66.95
48774;BME280;34576;0.000;0.000;2022-10-31T02:41:31;97046.91;;;20.12;67.00
48774;BME280;34576;0.000;0.000;2022-10-31T02:48:40;97043.75;;;20.10;67.15
48774;BME280;34576;0.000;0.000;2022-10-31T02:56:02;97037.59;;;20.09;67.08
48774;BME280;34576;0.000;0.000;2022-10-31T03:03:19;97026.91;;;20.09;67.06
48774;BME280;34576;0.000;0.000;2022-10-31T03:10:34;97029.56;;;20.09;66.98
48774;BME280;34576;0.000;0.000;2022-10-31T03:17:37;97025.34;;;20.08;66.88
48774;BME280;34576;0.000;0.000;2022-10-31T03:24:41;97027.19;;;20.08;66.92
48774;BME280;34576;0.000;0.000;2022-10-31T03:31:46;97022.94;;;20.07;66.93
48774;BME280;34576;0.000;0.000;2022-10-31T03:38:48;97016.78;;;20.06;66.74
48774;BME280;34576;0.000;0.000;2022-10-31T03:45:51;97016.00;;;20.06;66.82
48774;BME280;34576;0.000;0.000;2022-10-31T03:52:56;97014.41;;;20.05;66.81
48774;BME280;34576;0.000;0.000;2022-10-31T04:00:04;97011.72;;;20.05;66.97
48774;BME280;34576;0.000;0.000;2022-10-31T04:07:07;97005.88;;;20.03;66.77
48774;BME280;34576;0.000;0.000;2022-10-31T04:14:09;97003.22;;;20.03;66.83
48774;BME280;34576;0.000;0.000;2022-10-31T04:21:11;97002.13;;;20.04;66.72
48774;BME280;34576;0.000;0.000;2022-10-31T04:28:11;97000.00;;;20.00;66.95
48774;BME280;34576;0.000;0.000;2022-10-31T04:35:12;96992.00;;;20.00;66.77
48774;BME280;34576;0.000;0.000;2022-10-31T04:42:12;96994.69;;;20.00;66.76
48774;BME280;34576;0.000;0.000;2022-10-31T04:49:13;96993.09;;;19.99;66.78
48774;BME280;34576;0.000;0.000;2022-10-31T04:56:14;96979.75;;;19.99;66.75
48774;BME280;34576;0.000;0.000;2022-10-31T05:03:18;96982.41;;;19.99;66.67
48774;BME280;34576;0.000;0.000;2022-10-31T05:10:20;96982.97;;;19.96;66.75
48774;BME280;34576;0.000;0.000;2022-10-31T05:17:22;96986.16;;;19.98;66.94
48774;BME280;34576;0.000;0.000;2022-10-31T05:24:43;96974.16;;;19.96;66.72
48774;BME280;34576;0.000;0.000;2022-10-31T05:31:44;96981.88;;;19.97;66.71
48774;BME280;34576;0.000;0.000;2022-10-31T05:38:57;96978.72;;;19.95;66.88
48774;BME280;34576;0.000;0.000;2022-10-31T05:46:07;96971.78;;;19.94;66.62
48774;BME280;34576;0.000;0.000;2022-10-31T05:53:26;96969.88;;;19.95;66.69
48774;BME280;34576;0.000;0.000;2022-10-31T06:00:27;96966.44;;;19.94;66.83
48774;BME280;34576;0.000;0.000;2022-10-31T06:07:33;96977.41;;;19.93;66.76
48774;BME280;34576;0.000;0.000;2022-10-31T06:14:34;96975.78;;;19.92;66.62
48774;BME280;34576;0.000;0.000;2022-10-31T06:21:34;96978.47;;;19.92;66.73
48774;BME280;34576;0.000;0.000;2022-10-31T06:28:35;96976.09;;;19.90;66.71
48774;BME280;34576;0.000;0.000;2022-10-31T06:35:47;96971.53;;;19.91;66.78
48774;BME280;34576;0.000;0.000;2022-10-31T06:43:01;96974.19;;;19.91;66.57
48774;BME280;34576;0.000;0.000;2022-10-31T06:50:03;96974.47;;;19.89;66.66
48774;BME280;34576;0.000;0.000;2022-10-31T06:57:04;96979.53;;;19.91;66.74
48774;BME280;34576;0.000;0.000;2022-10-31T07:04:05;96977.69;;;19.91;66.65
48774;BME280;34576;0.000;0.000;2022-10-31T07:11:08;96978.75;;;19.90;66.64
48774;BME280;34576;0.000;0.000;2022-10-31T07:18:10;96977.69;;;19.91;66.66
48774;BME280;34576;0.000;0.000;2022-10-31T07:25:10;96990.75;;;19.93;66.48
48774;BME280;34576;0.000;0.000;2022-10-31T07:32:39;96988.88;;;19.93;66.49
48774;BME280;34576;0.000;0.000;2022-10-31T07:39:40;97000.34;;;19.94;66.64
48774;BME280;34576;0.000;0.000;2022-10-31T07:46:41;97000.06;;;19.95;66.45
48774;BME280;34576;0.000;0.000;2022-10-31T07:54:13;97005.41;;;19.95;66.54
48774;BME280;34576;0.000;0.000;2022-10-31T08:01:14;97003.25;;;19.97;66.44
48774;BME280;34576;0.000;0.000;2022-10-31T08:08:22;96998.69;;;19.98;66.40
48774;BME280;34576;0.000;0.000;2022-10-31T08:15:24;97000.31;;;19.99;66.54
48774;BME280;34576;0.000;0.000;2022-10-31T08:22:25;97001.13;;;19.99;66.41
48774;BME280;34576;0.000;0.000;2022-10-31T08:29:25;96992.00;;;20.00;66.40
48774;BME280;34576;0.000;0.000;2022-10-31T08:36:26;96982.13;;;20.01;66.43
48774;BME280;34576;0.000;0.000;2022-10-31T08:43:43;96979.47;;;20.01;66.60
48774;BME280;34576;0.000;0.000;2022-10-31T08:50:45;96981.84;;;20.03;66.52
48774;BME280;34576;0.000;0.000;2022-10-31T08:57:45;96969.56;;;20.02;66.58
48774;BME280;34576;0.000;0.000;2022-10-31T09:04:46;96965.84;;;20.03;66.63
48774;BME280;34576;0.000;0.000;2022-10-31T09:11:46;96956.72;;;20.04;66.51
48774;BME280;34576;0.000;0.000;2022-10-31T09:19:05;96943.38;;;20.04;66.61
48774;BME280;34576;0.000;0.000;2022-10-31T09:26:06;96932.69;;;20.04;66.71
48774;BME280;34576;0.000;0.000;2022-10-31T09:33:16;96937.50;;;20.07;66.53
48774;BME280;34576;0.000;0.000;2022-10-31T09:40:26;96928.94;;;20.05;66.75
48774;BME280;34576;0.000;0.000;2022-10-31T10:01:56;96935.31;;;20.09;66.55
48774;BME280;34576;0.000;0.000;2022-10-31T10:08:58;96929.97;;;20.09;66.77
48774;BME280;34576;0.000;0.000;2022-10-31T10:17:11;96916.34;;;20.10;66.58
48774;BME280;34576;0.000;0.000;2022-10-31T10:23:57;96915.56;;;20.10;66.65
48774;BME280;34576;0.000;0.000;2022-10-31T10:31:20;96905.66;;;20.10;66.75
48774;BME280;34576;0.000;0.000;2022-10-31T10:45:25;96906.72;;;20.09;66.81
48774;BME280;34576;0.000;0.000;2022-10-31T10:52:58;96897.94;;;20.09;67.00
48774;BME280;34576;0.000;0.000;2022-10-31T11:07:18;96914.75;;;20.09;66.60
48774;BME280;34576;0.000;0.000;2022-10-31T11:14:19;96922.47;;;20.11;66.81
48774;BME280;34576;0.000;0.000;2022-10-31T11:21:29;96916.06;;;20.12;66.72
48774;BME280;34576;0.000;0.000;2022-10-31T11:28:32;96893.09;;;20.11;66.81
48774;BME280;34576;0.000;0.000;2022-10-31T11:35:34;96870.66;;;20.12;66.76
48774;BME280;34576;0.000;0.000;2022-10-31T11:42:39;96867.41;;;20.15;66.72
48774;BME280;34576;0.000;0.000;2022-10-31T11:49:42;96849.25;;;20.17;66.67
48774;BME280;34576;0.000;0.000;2022-10-31T11:56:42;96838.03;;;20.15;67.00
48774;BME280;34576;0.000;0.000;2022-10-31T12:03:49;96819.06;;;20.16;66.87
48774;BME280;34576;0.000;0.000;2022-10-31T12:18:22;96774.97;;;20.19;66.94
48774;BME280;34576;0.000;0.000;2022-10-31T12:25:28;96759.22;;;20.17;67.19
48774;BME280;34576;0.000;0.000;2022-10-31T12:46:58;96735.19;;;20.17;67.46
48774;BME280;34576;0.000;0.000;2022-10-31T12:54:22;96734.91;;;20.19;67.54
48774;BME280;34576;0.000;0.000;2022-10-31T13:01:33;96721.84;;;20.17;67.59
48774;BME280;34576;0.000;0.000;2022-10-31T13:08:40;96702.84;;;20.19;67.76
48774;BME280;34576;0.000;0.000;2022-10-31T13:15:57;96695.13;;;20.17;68.04
48774;BME280;34576;0.000;0.000;2022-10-31T13:23:08;96675.13;;;20.15;67.98
48774;BME280;34576;0.000;0.000;2022-10-31T13:30:15;96683.13;;;20.15;68.07
48774;BME280;34576;0.000;0.000;2022-10-31T13:51:38;96651.03;;;20.20;67.96
48774;BME280;34576;0.000;0.000;2022-10-31T13:58:38;96649.44;;;20.19;68.10
48774;BME280;34576;0.000;0.000;2022-10-31T14:05:43;96639.84;;;20.18;68.17
48774;BME280;34576;0.000;0.000;2022-10-31T14:12:51;96624.63;;;20.18;67.97
48774;BME280;34576;0.000;0.000;2022-10-31T14:20:37;96636.09;;;20.19;68.05
48774;BME280;34576;0.000;0.000;2022-10-31T14:48:43;96577.91;;;20.16;68.22
48774;BME280;34576;0.000;0.000;2022-10-31T14:55:49;96579.50;;;20.17;68.03
48774;BME280;34576;0.000;0.000;2022-10-31T15:03:01;96567.22;;;20.16;68.22
48774;BME280;34576;0.000;0.000;2022-10-31T15:10:05;96569.13;;;20.15;68.30
48774;BME280;34576;0.000;0.000;2022-10-31T15:17:05;96573.66;;;20.15;68.17
48774;BME280;34576;0.000;0.000;2022-10-31T15:24:10;96582.78;;;20.14;68.03
48774;BME280;34576;0.000;0.000;2022-10-31T15:31:16;96576.63;;;20.13;68.12
48774;BME280;34576;0.000;0.000;2022-10-31T15:38:16;96584.34;;;20.15;67.94
48774;BME280;34576;0.000;0.000;2022-10-31T15:45:18;96595.31;;;20.13;68.11
48774;BME280;34576;0.000;0.000;2022-10-31T15:59:24;96599.88;;;20.13;68.11
48774;BME280;34576;0.000;0.000;2022-10-31T16:06:26;96598.28;;;20.12;68.06
48774;BME280;34576;0.000;0.000;2022-10-31T16:13:28;96603.63;;;20.12;67.93
48774;BME280;34576;0.000;0.000;2022-10-31T16:20:29;96608.94;;;20.12;67.96
48774;BME280;34576;0.000;0.000;2022-10-31T16:27:32;96628.72;;;20.11;67.99
48774;BME280;34576;0.000;0.000;2022-10-31T16:34:33;96636.72;;;20.11;67.83
48774;BME280;34576;0.000;0.000;2022-10-31T16:41:34;96650.09;;;20.11;67.74
48774;BME280;34576;0.000;0.000;2022-10-31T16:48:36;96645.56;;;20.11;67.79
48774;BME280;34576;0.000;0.000;2022-10-31T16:55:46;96671.44;;;20.11;67.73
48774;BME280;34576;0.000;0.000;2022-10-31T17:02:47;96653.84;;;20.10;67.69
48774;BME280;34576;0.000;0.000;2022-10-31T17:09:48;96675.22;;;20.10;67.41
48774;BME280;34576;0.000;0.000;2022-10-31T17:16:49;96669.06;;;20.09;67.45
48774;BME280;34576;0.000;0.000;2022-10-31T17:23:49;96683.53;;;20.08;67.53
48774;BME280;34576;0.000;0.000;2022-10-31T17:30:50;96700.31;;;20.09;67.54
48774;BME280;34576;0.000;0.000;2022-10-31T17:37:50;96691.81;;;20.07;67.46
48774;BME280;34576;0.000;0.000;2022-10-31T17:44:50;96695.56;;;20.06;67.49
48774;BME280;34576;0.000;0.000;2022-10-31T17:51:51;96722.28;;;20.06;67.48
48774;BME280;34576;0.000;0.000;2022-10-31T17:58:51;96708.91;;;20.06;67.40
48774;BME280;34576;0.000;0.000;2022-10-31T18:05:55;96713.19;;;20.07;67.26
48774;BME280;34576;0.000;0.000;2022-10-31T18:12:56;96720.69;;;20.05;67.19
48774;BME280;34576;0.000;0.000;2022-10-31T18:19:56;96710.00;;;20.05;67.16
48774;BME280;34576;0.000;0.000;2022-10-31T18:26:56;96706.53;;;20.04;67.16
48774;BME280;34576;0.000;0.000;2022-10-31T18:33:57;96708.41;;;20.04;67.12
48774;BME280;34576;0.000;0.000;2022-10-31T18:40:57;96716.41;;;20.04;67.06
48774;BME280;34576;0.000;0.000;2022-10-31T18:47:57;96706.84;;;20.03;67.07
48774;BME280;34576;0.000;0.000;2022-10-31T18:54:58;96704.94;;;20.03;66.88
48774;BME280;34576;0.000;0.000;2022-10-31T19:01:58;96682.78;;;20.03;66.98
48774;BME280;34576;0.000;0.000;2022-10-31T19:09:00;96667.84;;;20.02;66.86
48774;BME280;34576;0.000;0.000;2022-10-31T19:16:08;96670.81;;;20.00;66.98
48774;BME280;34576;0.000;0.000;2022-10-31T19:23:11;96659.34;;;19.99;66.88
48774;BME280;34576;0.000;0.000;2022-10-31T19:30:11;96657.47;;;20.00;67.06
48774;BME280;34576;0.000;0.000;2022-10-31T19:37:12;96663.09;;;19.98;66.97
48774;BME280;34576;0.000;0.000;2022-10-31T19:44:12;96672.97;;;19.98;66.80
48774;BME280;34576;0.000;0.000;2022-10-31T19:51:15;96664.16;;;19.97;66.95
48774;BME280;34576;0.000;0.000;2022-10-31T19:58:15;96660.72;;;19.97;67.04
48774;BME280;34576;0.000;0.000;2022-10-31T20:05:15;96654.56;;;19.96;66.78
48774;BME280;34576;0.000;0.000;2022-10-31T20:12:16;96657.53;;;19.95;66.88
48774;BME280;34576;0.000;0.000;2022-10-31T20:19:16;96665.53;;;19.95;66.87
48774;BME280;34576;0.000;0.000;2022-10-31T20:26:17;96669.00;;;19.95;66.67
48774;BME280;34576;0.000;0.000;2022-10-31T20:33:18;96655.97;;;19.94;66.76
48774;BME280;34576;0.000;0.000;2022-10-31T20:40:19;96662.38;;;19.93;66.80
48774;BME280;34576;0.000;0.000;2022-10-31T20:47:19;96671.16;;;19.93;66.85
48774;BME280;34576;0.000;0.000;2022-10-31T20:54:20;96658.88;;;19.92;66.85
48774;BME280;34576;0.000;0.000;2022-10-31T21:01:24;96662.66;;;19.91;66.72
48774;BME280;34576;0.000;0.000;2022-10-31T21:08:25;96659.19;;;19.91;66.81
48774;BME280;34576;0.000;0.000;2022-10-31T21:15:26;96662.66;;;19.91;66.86
48774;BME280;34576;0.000;0.000;2022-10-31T21:22:26;96661.06;;;19.90;66.86
48774;BME280;34576;0.000;0.000;2022-10-31T21:29:26;96665.63;;;19.90;66.81
48774;BME280;34576;0.000;0.000;2022-10-31T21:36:27;96662.44;;;19.88;66.79
48774;BME280;34576;0.000;0.000;2022-10-31T21:43:27;96663.25;;;19.88;66.72
48774;BME280;34576;0.000;0.000;2022-10-31T21:50:28;96652.56;;;19.88;66.60
48774;BME280;34576;0.000;0.000;2022-10-31T21:57:29;96657.09;;;19.88;66.73
48774;BME280;34576;0.000;0.000;2022-10-31T22:04:31;96656.59;;;19.86;66.56
48774;BME280;34576;0.000;0.000;2022-10-31T22:11:32;96655.53;;;19.87;66.55
48774;BME280;34576;0.000;0.000;2022-10-31T22:18:33;96661.13;;;19.85;66.71
48774;BME280;34576;0.000;0.000;2022-10-31T22:25:34;96665.38;;;19.86;66.67
48774;BME280;34576;0.000;0.000;2022-10-31T22:32:35;96665.69;;;19.85;66.64
48774;BME280;34576;0.000;0.000;2022-10-31T22:39:35;96661.13;;;19.85;66.55
48774;BME280;34576;0.000;0.000;2022-10-31T22:46:36;96650.72;;;19.83;66.54
48774;BME280;34576;0.000;0.000;2022-10-31T22:53:37;96639.28;;;19.83;66.54
48774;BME280;34576;0.000;0.000;2022-10-31T23:00:37;96642.22;;;19.81;66.63
48774;BME280;34576;0.000;0.000;2022-10-31T23:07:38;96635.00;;;19.82;66.52
48774;BME280;34576;0.000;0.000;2022-10-31T23:14:38;96634.22;;;19.81;66.49
48774;BME280;34576;0.000;0.000;2022-10-31T23:21:40;96627.00;;;19.82;66.46
48774;BME280;34576;0.000;0.000;2022-10-31T23:29:01;96623.84;;;19.80;66.60
48774;BME280;34576;0.000;0.000;2022-10-31T23:36:01;96630.78;;;19.81;66.45
48774;BME280;34576;0.000;0.000;2022-10-31T23:43:02;96634.50;;;19.80;66.41
48774;BME280;34576;0.000;0.000;2022-10-31T23:50:02;96628.63;;;19.78;66.46
48774;BME280;34576;0.000;0.000;2022-10-31T23:57:02;96619.06;;;19.77;66.48
